Time;durP1;ratioP1;P1;durP2;ratioP2;P2;SDS_P1;SDS_P2;PMS_P1;PMS_P2;Temp;Humidity;BMP_temperature;BMP_pressure;BME280_temperature;BME280_humidity;BME280_pressure;Samples;Min_cycle;Max_cycle;Signal;HPM_P1;HPM_P2
2022/01/05 00:01:26;;;;;;;6.80;1.40;;;3.10;99.90;;;;;;5124157;27;20050;-84
2022/01/05 00:03:53;;;;;;;9.38;1.85;;;3.20;99.90;;;;;;5108736;27;20042;-85
2022/01/05 00:06:19;;;;;;;11.88;2.25;;;3.10;99.90;;;;;;5114805;27;20043;-84
2022/01/05 00:08:44;;;;;;;9.45;1.40;;;3.10;99.90;;;;;;5098257;28;20473;-84
2022/01/05 00:11:10;;;;;;;7.18;1.40;;;3.10;99.90;;;;;;5112167;27;20042;-85
2022/01/05 00:13:37;;;;;;;8.23;1.63;;;3.00;99.90;;;;;;5110390;27;20035;-84
2022/01/05 00:16:03;;;;;;;13.55;2.00;;;3.00;99.90;;;;;;5114266;27;20031;-84
2022/01/05 00:18:28;;;;;;;12.27;1.75;;;3.00;99.90;;;;;;5094887;27;20479;-84
2022/01/05 00:20:55;;;;;;;11.77;1.60;;;3.00;99.90;;;;;;5113070;28;20027;-84
2022/01/05 00:23:21;;;;;;;12.45;2.28;;;3.00;99.90;;;;;;5096302;28;20031;-84
2022/01/05 00:25:47;;;;;;;13.10;1.70;;;3.00;99.90;;;;;;5095670;28;20463;-84
2022/01/05 00:28:13;;;;;;;12.98;1.60;;;3.00;99.90;;;;;;5094360;28;20042;-84
2022/01/05 00:30:39;;;;;;;8.25;1.42;;;3.00;99.90;;;;;;5112138;27;20488;-84
2022/01/05 00:33:04;;;;;;;12.05;1.40;;;3.00;99.90;;;;;;5130044;27;20100;-84
2022/01/05 00:35:30;;;;;;;8.02;1.35;;;3.10;99.90;;;;;;5092664;28;20031;-84
2022/01/05 00:37:56;;;;;;;6.95;1.27;;;3.10;99.90;;;;;;5105137;28;20053;-84
2022/01/05 00:40:21;;;;;;;11.85;1.90;;;3.10;99.90;;;;;;5104941;28;20119;-84
2022/01/05 00:42:47;;;;;;;17.20;1.83;;;3.20;99.90;;;;;;5091646;28;20059;-84
2022/01/05 00:45:13;;;;;;;7.68;1.55;;;3.20;99.90;;;;;;5087627;28;20174;-85
2022/01/05 00:47:39;;;;;;;9.27;1.75;;;3.30;99.90;;;;;;5085271;27;20674;-84
2022/01/05 00:50:05;;;;;;;6.90;1.80;;;3.30;99.90;;;;;;5097396;27;20050;-85
2022/01/05 00:52:31;;;;;;;11.13;1.65;;;3.30;99.90;;;;;;5110472;28;20039;-84
2022/01/05 00:54:56;;;;;;;7.53;1.73;;;3.30;99.90;;;;;;5091798;27;20404;-84
2022/01/05 00:57:22;;;;;;;16.13;1.88;;;3.30;99.90;;;;;;5106994;28;20027;-84
2022/01/05 00:59:48;;;;;;;7.80;1.60;;;3.30;99.90;;;;;;5106764;28;20047;-84
2022/01/05 01:02:13;;;;;;;8.45;1.13;;;3.30;99.90;;;;;;5093363;27;20399;-84
2022/01/05 01:04:39;;;;;;;11.35;2.00;;;3.30;99.90;;;;;;5089905;27;20039;-84
2022/01/05 01:07:04;;;;;;;9.40;2.67;;;3.30;99.90;;;;;;5092346;28;20031;-84
2022/01/05 01:09:31;;;;;;;6.93;1.20;;;3.20;99.90;;;;;;5110630;27;20038;-84
2022/01/05 01:11:57;;;;;;;4.47;1.05;;;3.20;99.90;;;;;;5090415;27;20107;-84
2022/01/05 01:14:22;;;;;;;8.65;1.42;;;3.20;99.90;;;;;;5105006;27;20117;-84
2022/01/05 01:16:48;;;;;;;5.60;0.95;;;3.20;99.90;;;;;;5091905;28;22465;-84
2022/01/05 01:19:14;;;;;;;12.52;1.35;;;3.10;99.90;;;;;;5111052;27;20035;-84
2022/01/05 01:21:39;;;;;;;7.95;1.40;;;3.10;99.90;;;;;;5107899;28;20043;-84
2022/01/05 01:24:05;;;;;;;11.07;1.83;;;3.10;99.90;;;;;;5093941;28;20130;-84
2022/01/05 01:26:31;;;;;;;7.95;1.38;;;3.10;99.90;;;;;;5116765;27;20113;-84
2022/01/05 01:28:58;;;;;;;8.35;1.50;;;3.00;99.90;;;;;;5115139;27;20039;-84
2022/01/05 01:31:25;;;;;;;9.73;1.40;;;3.00;99.90;;;;;;5092531;27;20035;-84
2022/01/05 01:33:51;;;;;;;7.65;1.48;;;3.00;99.90;;;;;;5112713;27;20043;-83
2022/01/05 01:36:17;;;;;;;8.57;1.25;;;3.00;99.90;;;;;;5129158;27;20035;-84
2022/01/05 01:38:43;;;;;;;11.10;1.73;;;2.90;99.90;;;;;;5096345;27;20055;-83
2022/01/05 01:41:10;;;;;;;12.30;1.73;;;2.90;99.90;;;;;;5096167;27;20046;-84
2022/01/05 01:43:36;;;;;;;14.80;1.45;;;3.00;99.90;;;;;;5108524;27;20039;-84
2022/01/05 01:46:04;;;;;;;11.50;1.55;;;2.90;99.90;;;;;;5095201;27;20080;-84
2022/01/05 01:48:30;;;;;;;13.40;2.15;;;2.90;99.90;;;;;;5099739;27;20042;-84
2022/01/05 01:50:56;;;;;;;8.30;1.20;;;2.90;99.90;;;;;;5117938;27;20043;-84
2022/01/05 01:53:22;;;;;;;7.47;1.48;;;2.90;99.90;;;;;;5111522;27;20126;-84
2022/01/05 01:55:49;;;;;;;11.38;1.83;;;3.00;99.90;;;;;;5091015;27;20047;-84
2022/01/05 01:58:19;;;;;;;15.52;2.80;;;2.90;99.90;;;;;;5096541;27;20039;-84
2022/01/05 02:00:45;;;;;;;12.52;2.35;;;2.90;99.90;;;;;;5094604;27;20042;-84
2022/01/05 02:03:12;;;;;;;10.07;1.80;;;2.90;99.90;;;;;;5109118;27;20031;-84
2022/01/05 02:05:38;;;;;;;8.38;1.60;;;2.90;99.90;;;;;;5096136;27;20035;-84
2022/01/05 02:08:04;;;;;;;7.47;1.35;;;2.90;99.90;;;;;;5094411;27;20035;-84
2022/01/05 02:10:29;;;;;;;9.05;1.30;;;2.90;99.90;;;;;;5095938;27;20063;-84
2022/01/05 02:12:55;;;;;;;12.00;2.00;;;2.90;99.90;;;;;;5110480;27;20038;-84
2022/01/05 02:15:21;;;;;;;8.45;1.60;;;2.90;99.90;;;;;;5112152;27;20027;-83
2022/01/05 02:18:57;;;;;;;7.78;1.30;;;3.00;99.90;;;;;;5116558;27;20039;-83
2022/01/05 02:20:36;;;;;;;11.43;1.50;;;3.00;99.90;;;;;;5109345;27;20131;-83
2022/01/05 02:23:03;;;;;;;11.40;1.48;;;2.90;99.90;;;;;;5096427;27;20411;-83
2022/01/05 02:25:29;;;;;;;14.73;2.45;;;3.00;99.90;;;;;;5096370;27;20042;-84
2022/01/05 02:27:56;;;;;;;12.95;1.80;;;2.90;99.90;;;;;;5095050;27;20404;-83
2022/01/05 02:30:30;;;;;;;9.63;2.55;;;3.00;99.90;;;;;;5108677;27;20061;-83
2022/01/05 02:32:56;;;;;;;12.60;2.05;;;3.00;99.90;;;;;;5108476;27;20076;-84
2022/01/05 02:35:22;;;;;;;9.45;1.63;;;3.10;99.90;;;;;;5097633;27;20042;-83
2022/01/05 02:37:50;;;;;;;17.80;2.00;;;3.00;99.90;;;;;;5092134;27;20047;-84
2022/01/05 02:40:18;;;;;;;10.38;1.77;;;3.10;99.90;;;;;;5095146;27;20035;-84
2022/01/05 02:42:45;;;;;;;10.43;2.10;;;3.10;99.90;;;;;;5093579;27;20450;-84
2022/01/05 02:45:12;;;;;;;12.30;1.60;;;3.10;99.90;;;;;;5091095;27;20036;-84
2022/01/05 02:47:38;;;;;;;11.30;1.55;;;3.10;99.90;;;;;;5108440;27;20039;-84
2022/01/05 02:50:06;;;;;;;8.70;1.50;;;3.10;99.90;;;;;;5092736;27;20042;-84
2022/01/05 02:52:32;;;;;;;7.55;2.33;;;3.20;99.90;;;;;;5092745;27;20118;-83
2022/01/05 02:54:58;;;;;;;13.25;2.10;;;3.20;99.90;;;;;;5091526;27;20096;-84
2022/01/05 02:57:24;;;;;;;9.63;1.80;;;3.10;99.90;;;;;;5090457;27;20047;-84
2022/01/05 02:59:49;;;;;;;10.05;2.45;;;3.20;99.90;;;;;;5110555;27;20035;-84
2022/01/05 03:02:15;;;;;;;12.95;2.40;;;3.20;99.90;;;;;;5092459;27;20032;-84
2022/01/05 03:04:41;;;;;;;15.00;2.00;;;3.20;99.90;;;;;;5114013;27;20034;-83
2022/01/05 03:07:08;;;;;;;10.30;1.70;;;3.20;99.90;;;;;;5106321;27;20084;-84
2022/01/05 03:09:34;;;;;;;8.80;1.63;;;3.20;99.90;;;;;;5113646;27;21357;-84
2022/01/05 03:12:00;;;;;;;11.45;1.63;;;3.20;99.90;;;;;;5110579;27;20130;-84
2022/01/05 03:14:25;;;;;;;17.73;2.35;;;3.20;99.90;;;;;;5095149;27;20126;-84
2022/01/05 03:16:51;;;;;;;10.27;1.95;;;3.20;99.90;;;;;;5108745;27;20129;-84
2022/01/05 03:19:17;;;;;;;12.48;2.60;;;3.20;99.90;;;;;;5094059;27;20038;-84
2022/01/05 03:21:43;;;;;;;18.23;2.67;;;3.20;99.90;;;;;;5090932;27;20078;-84
2022/01/05 03:24:08;;;;;;;10.77;2.28;;;3.20;99.90;;;;;;5105940;27;20039;-84
2022/01/05 03:26:34;;;;;;;13.75;2.17;;;3.30;99.90;;;;;;5104945;27;20080;-84
2022/01/05 03:28:59;;;;;;;13.07;2.78;;;3.30;99.90;;;;;;5105921;27;20027;-84
2022/01/05 03:31:25;;;;;;;20.40;3.35;;;3.30;99.90;;;;;;5108648;27;20035;-84
2022/01/05 03:33:51;;;;;;;11.02;1.85;;;3.30;99.90;;;;;;5090212;27;20045;-84
2022/01/05 03:36:16;;;;;;;17.48;3.03;;;3.30;99.90;;;;;;5106816;27;20039;-84
2022/01/05 03:38:42;;;;;;;14.90;2.20;;;3.40;99.90;;;;;;5092832;27;20169;-84
2022/01/05 03:41:08;;;;;;;16.52;2.47;;;3.40;99.90;;;;;;5090102;27;20069;-84
2022/01/05 03:43:33;;;;;;;12.23;2.05;;;3.50;99.90;;;;;;5090036;27;20424;-84
2022/01/05 03:45:59;;;;;;;12.73;2.25;;;3.50;99.90;;;;;;5124805;27;20041;-84
2022/01/05 03:48:25;;;;;;;9.25;1.95;;;3.50;99.90;;;;;;5111630;27;20123;-84
2022/01/05 03:50:51;;;;;;;16.40;2.15;;;3.50;99.90;;;;;;5110577;27;20765;-84
2022/01/05 03:53:17;;;;;;;14.57;2.47;;;3.50;99.90;;;;;;5095455;27;20385;-85
2022/01/05 03:55:45;;;;;;;13.88;2.58;;;3.50;99.90;;;;;;5109075;27;20031;-84
2022/01/05 03:58:11;;;;;;;20.13;2.67;;;3.50;99.90;;;;;;5091386;27;20038;-85
2022/01/05 04:00:43;;;;;;;16.42;3.03;;;3.60;99.90;;;;;;5093681;27;20113;-84
2022/01/05 04:03:09;;;;;;;10.63;2.45;;;3.60;99.90;;;;;;5108388;27;20130;-85
2022/01/05 04:05:35;;;;;;;11.73;2.13;;;3.60;99.90;;;;;;5094632;27;20122;-84
2022/01/05 04:08:01;;;;;;;14.23;2.60;;;3.70;99.90;;;;;;5095435;27;20035;-84
2022/01/05 04:10:26;;;;;;;22.33;2.50;;;3.70;99.90;;;;;;5089176;27;20084;-84
2022/01/05 04:12:52;;;;;;;14.82;2.50;;;3.60;99.90;;;;;;5107670;28;20559;-84
2022/01/05 04:15:18;;;;;;;12.23;2.33;;;3.70;99.90;;;;;;5093762;28;20039;-84
2022/01/05 04:17:44;;;;;;;13.52;1.85;;;3.60;99.90;;;;;;5107599;27;20121;-84
2022/01/05 04:20:11;;;;;;;15.68;2.72;;;3.70;99.90;;;;;;5109629;27;20059;-85
2022/01/05 04:22:38;;;;;;;15.05;2.13;;;3.60;99.90;;;;;;5108844;28;20039;-84
2022/01/05 04:25:04;;;;;;;17.95;3.55;;;3.70;99.90;;;;;;5091894;27;20632;-84
2022/01/05 04:27:30;;;;;;;17.92;2.97;;;3.70;99.90;;;;;;5093658;27;20035;-84
2022/01/05 04:29:55;;;;;;;14.82;1.92;;;3.80;99.90;;;;;;5110189;27;20076;-84
2022/01/05 04:32:21;;;;;;;13.70;1.98;;;3.80;99.90;;;;;;5105554;28;20042;-84
2022/01/05 04:34:46;;;;;;;15.95;2.55;;;3.90;99.90;;;;;;5109534;27;20050;-84
2022/01/05 04:37:12;;;;;;;16.10;2.47;;;3.90;99.90;;;;;;5108523;27;20634;-84
2022/01/05 04:39:38;;;;;;;15.18;2.00;;;4.00;99.90;;;;;;5092282;28;20039;-84
2022/01/05 04:42:04;;;;;;;15.35;2.45;;;4.00;99.90;;;;;;5095651;27;20077;-84
2022/01/05 04:44:30;;;;;;;15.55;3.22;;;4.10;99.90;;;;;;5093175;28;20062;-84
2022/01/05 04:46:56;;;;;;;12.98;1.90;;;4.10;99.90;;;;;;5111458;27;20122;-85
2022/01/05 04:49:22;;;;;;;15.48;2.10;;;4.10;99.90;;;;;;5112017;27;20448;-84
2022/01/05 04:51:47;;;;;;;12.93;2.08;;;4.10;99.90;;;;;;5111137;27;20718;-84
2022/01/05 04:54:14;;;;;;;10.35;1.70;;;4.10;99.90;;;;;;5108716;27;20036;-84
2022/01/05 04:56:39;;;;;;;10.95;1.90;;;4.00;99.90;;;;;;5092517;28;21808;-84
2022/01/05 04:59:05;;;;;;;14.38;1.90;;;4.00;99.90;;;;;;5106411;27;20027;-85
2022/01/05 05:01:30;;;;;;;15.15;2.03;;;4.00;99.90;;;;;;5112679;27;20123;-85
2022/01/05 05:03:56;;;;;;;10.52;2.03;;;4.00;99.90;;;;;;5092558;27;20039;-84
2022/01/05 05:06:22;;;;;;;16.52;2.70;;;4.00;99.90;;;;;;5157941;27;20042;-84
2022/01/05 05:08:49;;;;;;;10.57;1.73;;;4.00;99.90;;;;;;5155536;27;20095;-85
2022/01/05 05:11:15;;;;;;;11.93;1.92;;;4.10;99.90;;;;;;5124939;27;20027;-84
2022/01/05 05:13:40;;;;;;;13.15;2.35;;;4.00;99.90;;;;;;5139583;27;20031;-84
2022/01/05 05:16:06;;;;;;;13.77;2.03;;;4.00;99.90;;;;;;5147052;27;20023;-84
2022/01/05 05:18:32;;;;;;;12.85;1.83;;;4.00;99.90;;;;;;5110766;27;20043;-85
2022/01/05 05:20:57;;;;;;;20.35;2.83;;;4.00;99.90;;;;;;5112452;27;20031;-84
2022/01/05 05:23:23;;;;;;;10.40;2.17;;;4.00;99.90;;;;;;5115543;27;20091;-85
2022/01/05 05:25:49;;;;;;;8.45;1.80;;;4.00;99.90;;;;;;5097486;27;20039;-84
2022/01/05 05:28:14;;;;;;;10.98;2.00;;;4.00;99.90;;;;;;5096909;27;20039;-84
2022/01/05 05:30:40;;;;;;;12.48;2.45;;;4.10;99.90;;;;;;5112540;27;20066;-84
2022/01/05 05:33:06;;;;;;;9.80;1.60;;;4.00;99.90;;;;;;5115694;27;20038;-84
2022/01/05 05:35:32;;;;;;;14.27;2.20;;;4.00;99.90;;;;;;5097134;27;20046;-84
2022/01/05 05:37:58;;;;;;;12.80;2.38;;;4.00;99.90;;;;;;5092656;27;20045;-84
2022/01/05 05:40:24;;;;;;;13.18;2.60;;;4.00;99.90;;;;;;5095595;27;20146;-84
2022/01/05 05:42:50;;;;;;;16.48;2.28;;;4.10;99.90;;;;;;5111964;27;20027;-84
2022/01/05 05:45:16;;;;;;;13.48;2.17;;;4.10;99.90;;;;;;5108863;27;20072;-84
2022/01/05 05:47:42;;;;;;;15.13;2.08;;;4.20;99.90;;;;;;5101372;27;20034;-84
2022/01/05 05:50:09;;;;;;;18.17;2.58;;;4.20;99.90;;;;;;5094644;27;20039;-84
2022/01/05 05:52:34;;;;;;;13.40;1.70;;;4.20;99.90;;;;;;5093647;27;20488;-84
2022/01/05 05:55:00;;;;;;;13.02;1.75;;;4.20;99.90;;;;;;5095655;27;20031;-84
2022/01/05 05:57:26;;;;;;;14.55;2.30;;;4.30;99.90;;;;;;5095582;27;20126;-84
2022/01/05 05:59:51;;;;;;;10.23;1.85;;;4.30;99.90;;;;;;5092665;27;20122;-84
2022/01/05 06:02:17;;;;;;;12.32;2.72;;;4.30;99.90;;;;;;5096845;27;20050;-84
2022/01/05 06:04:43;;;;;;;17.00;2.92;;;4.40;99.90;;;;;;5102260;27;20031;-84
2022/01/05 06:07:09;;;;;;;15.07;2.38;;;4.40;99.90;;;;;;5128637;27;20047;-85
2022/01/05 06:09:34;;;;;;;18.65;2.72;;;4.40;99.90;;;;;;5116980;27;20038;-85
2022/01/05 06:12:00;;;;;;;15.55;1.92;;;4.40;99.90;;;;;;5131740;27;20041;-84
2022/01/05 06:14:25;;;;;;;14.93;2.00;;;4.50;99.90;;;;;;5095123;27;20035;-84
2022/01/05 06:16:51;;;;;;;13.35;2.00;;;4.50;99.90;;;;;;5130739;27;20119;-84
2022/01/05 06:19:17;;;;;;;14.77;2.35;;;4.50;99.90;;;;;;5119518;27;20065;-84
2022/01/05 06:21:44;;;;;;;15.63;3.35;;;4.50;99.90;;;;;;5092581;27;20059;-85
2022/01/05 06:24:10;;;;;;;17.60;2.45;;;4.50;99.90;;;;;;5107989;27;20051;-84
2022/01/05 06:26:36;;;;;;;18.13;2.72;;;4.60;99.90;;;;;;5106460;27;20035;-85
2022/01/05 06:29:02;;;;;;;13.63;2.47;;;4.50;99.90;;;;;;5106347;27;20434;-85
2022/01/05 06:31:27;;;;;;;16.58;2.00;;;4.50;99.90;;;;;;5087522;27;20371;-85
2022/01/05 06:33:53;;;;;;;15.23;2.78;;;4.50;99.90;;;;;;5089866;27;20443;-86
2022/01/05 06:36:18;;;;;;;12.35;1.83;;;4.50;99.90;;;;;;5099693;27;20062;-85
2022/01/05 06:38:44;;;;;;;13.77;1.88;;;4.50;99.90;;;;;;5116768;27;20044;-85
2022/01/05 06:41:10;;;;;;;15.35;2.47;;;4.40;99.90;;;;;;5114138;27;20032;-85
2022/01/05 06:43:35;;;;;;;13.30;1.70;;;4.50;99.90;;;;;;5114055;27;20123;-85
2022/01/05 06:46:01;;;;;;;15.23;2.30;;;4.50;99.90;;;;;;5091936;27;20043;-85
2022/01/05 06:48:27;;;;;;;9.52;1.98;;;4.40;99.90;;;;;;5109230;27;20062;-86
2022/01/05 06:50:52;;;;;;;19.05;2.88;;;4.50;99.90;;;;;;5094446;27;20051;-85
2022/01/05 06:53:18;;;;;;;18.23;2.60;;;4.50;99.90;;;;;;5087019;27;20039;-85
2022/01/05 06:55:43;;;;;;;14.00;2.45;;;4.50;99.90;;;;;;5097275;27;20069;-85
2022/01/05 06:58:09;;;;;;;15.30;2.42;;;4.50;99.90;;;;;;5094562;27;20039;-85
2022/01/05 07:00:35;;;;;;;13.63;2.08;;;4.50;99.90;;;;;;5096290;27;20031;-85
2022/01/05 07:03:00;;;;;;;13.73;2.00;;;4.50;99.90;;;;;;5126372;27;20030;-85
2022/01/05 07:05:26;;;;;;;20.85;2.42;;;4.50;99.90;;;;;;5108539;27;20504;-85
2022/01/05 07:07:52;;;;;;;11.30;2.10;;;4.50;99.90;;;;;;5093683;27;20380;-86
2022/01/05 07:10:18;;;;;;;16.85;2.45;;;4.50;99.90;;;;;;5123058;27;20039;-85
2022/01/05 07:12:44;;;;;;;12.70;2.20;;;4.50;99.90;;;;;;5102741;27;20042;-85
2022/01/05 07:15:11;;;;;;;13.05;2.00;;;4.50;99.90;;;;;;5107319;27;20035;-84
2022/01/05 07:17:37;;;;;;;12.48;1.67;;;4.50;99.90;;;;;;5103517;27;20482;-84
2022/01/05 07:20:04;;;;;;;14.48;2.85;;;4.50;99.90;;;;;;5121799;27;20053;-84
2022/01/05 07:22:30;;;;;;;8.80;1.60;;;4.50;99.90;;;;;;5088237;27;20035;-85
2022/01/05 07:24:56;;;;;;;10.20;2.03;;;4.60;99.90;;;;;;5092403;27;20316;-87
2022/01/05 07:27:23;;;;;;;7.90;1.20;;;4.50;99.90;;;;;;5098387;27;20078;-86
2022/01/05 07:29:49;;;;;;;14.23;2.08;;;4.60;99.90;;;;;;5136221;27;20086;-86
2022/01/05 07:32:15;;;;;;;10.55;1.40;;;4.50;99.90;;;;;;5143617;27;20086;-86
2022/01/05 07:34:40;;;;;;;8.25;1.30;;;4.50;99.90;;;;;;5131309;27;20042;-87
2022/01/05 07:37:06;;;;;;;5.95;0.98;;;4.50;99.90;;;;;;5102786;27;20185;-86
2022/01/05 07:39:32;;;;;;;9.77;1.55;;;4.50;99.90;;;;;;5091687;27;20031;-86
2022/01/05 07:41:58;;;;;;;8.93;1.10;;;4.50;99.90;;;;;;5110405;27;20020;-86
2022/01/05 07:44:23;;;;;;;6.38;1.30;;;4.50;99.90;;;;;;5086254;27;20035;-86
2022/01/05 07:46:49;;;;;;;4.38;1.20;;;4.50;99.90;;;;;;5105343;27;20062;-86
2022/01/05 07:49:14;;;;;;;9.25;1.40;;;4.50;99.90;;;;;;5112399;27;20035;-86
2022/01/05 07:51:40;;;;;;;3.83;1.00;;;4.50;99.90;;;;;;5109530;27;20034;-86
2022/01/05 07:54:06;;;;;;;7.78;1.38;;;4.50;99.90;;;;;;5103489;28;20122;-86
2022/01/05 07:56:32;;;;;;;4.78;1.27;;;4.50;99.90;;;;;;5104472;27;20038;-86
2022/01/05 07:58:58;;;;;;;9.02;1.20;;;4.50;99.90;;;;;;5089250;27;20066;-86
2022/01/05 08:01:24;;;;;;;7.32;1.25;;;4.50;99.90;;;;;;5125695;27;20439;-86
2022/01/05 08:03:50;;;;;;;8.73;1.95;;;4.50;99.90;;;;;;5110108;27;20039;-86
2022/01/05 08:06:17;;;;;;;6.85;1.30;;;4.60;99.90;;;;;;5105221;28;20050;-86
2022/01/05 08:08:44;;;;;;;6.88;1.10;;;4.60;99.90;;;;;;5088516;27;20492;-86
2022/01/05 08:11:10;;;;;;;9.15;1.30;;;4.60;99.90;;;;;;5097538;28;20070;-84
2022/01/05 08:13:36;;;;;;;10.32;1.30;;;4.60;99.90;;;;;;5105119;27;20131;-87
2022/01/05 08:16:01;;;;;;;10.00;2.03;;;4.70;99.90;;;;;;5094759;27;20496;-87
2022/01/05 08:18:27;;;;;;;11.32;1.67;;;4.70;99.90;;;;;;5111667;28;20035;-86
2022/01/05 08:20:54;;;;;;;7.47;1.55;;;4.80;99.90;;;;;;5111671;28;20039;-88
2022/01/05 08:23:22;;;;;;;13.60;1.80;;;4.90;99.90;;;;;;5087226;27;20035;-88
2022/01/05 08:25:48;;;;;;;15.30;1.63;;;4.90;99.90;;;;;;5102304;27;20047;-85
2022/01/05 08:28:16;;;;;;;12.63;2.00;;;5.00;99.90;;;;;;5099209;27;20035;-87
2022/01/05 08:30:44;;;;;;;12.85;2.13;;;5.00;99.90;;;;;;5101158;28;20174;-87
2022/01/05 08:33:10;;;;;;;8.93;1.40;;;5.10;99.90;;;;;;5088264;27;20051;-86
2022/01/05 08:35:36;;;;;;;12.65;1.95;;;5.10;99.90;;;;;;5092996;27;20031;-86
2022/01/05 08:38:03;;;;;;;10.25;1.50;;;5.10;99.90;;;;;;5102145;27;20051;-87
2022/01/05 08:40:30;;;;;;;13.25;1.95;;;5.20;99.90;;;;;;5105393;27;20072;-86
2022/01/05 08:42:56;;;;;;;16.45;2.13;;;5.20;99.90;;;;;;5092191;27;20039;-86
2022/01/05 08:45:23;;;;;;;14.68;1.67;;;5.20;99.90;;;;;;5093922;27;20047;-86
2022/01/05 08:47:51;;;;;;;12.43;1.90;;;5.30;99.90;;;;;;5093183;27;20519;-87
2022/01/05 08:50:19;;;;;;;16.88;1.85;;;5.30;99.90;;;;;;5110336;27;20067;-86
2022/01/05 08:52:45;;;;;;;16.00;1.83;;;5.40;99.90;;;;;;5093088;27;20047;-88
2022/01/05 08:55:12;;;;;;;11.52;1.77;;;5.30;99.90;;;;;;5093888;27;20054;-86
2022/01/05 08:57:40;;;;;;;12.52;1.88;;;5.40;99.90;;;;;;5110620;27;20035;-86
2022/01/05 09:00:07;;;;;;;13.07;1.63;;;5.40;99.90;;;;;;5109569;27;20060;-86
2022/01/05 09:02:32;;;;;;;7.57;1.27;;;5.40;99.90;;;;;;5111086;27;20122;-86
2022/01/05 09:04:58;;;;;;;15.65;2.22;;;5.40;99.90;;;;;;5084991;27;20119;-86
2022/01/05 09:07:24;;;;;;;11.25;2.83;;;5.40;99.90;;;;;;5110579;27;20131;-86
2022/01/05 09:09:49;;;;;;;15.30;1.98;;;5.40;99.90;;;;;;5109235;27;20043;-86
2022/01/05 09:12:15;;;;;;;16.33;2.83;;;5.50;99.90;;;;;;5110781;27;20492;-86
2022/01/05 09:14:41;;;;;;;10.18;1.70;;;5.50;99.90;;;;;;5105268;27;20063;-87
2022/01/05 09:17:07;;;;;;;15.32;2.88;;;5.60;99.90;;;;;;5105393;27;20068;-87
2022/01/05 09:19:33;;;;;;;9.65;1.50;;;5.60;99.90;;;;;;5111128;27;20078;-87
2022/01/05 09:22:00;;;;;;;13.77;1.50;;;5.60;99.90;;;;;;5105332;27;20120;-87
2022/01/05 09:24:25;;;;;;;10.98;1.80;;;5.70;99.90;;;;;;5091085;27;20031;-87
2022/01/05 09:26:52;;;;;;;10.02;1.33;;;5.80;99.90;;;;;;5094232;27;20027;-87
2022/01/05 09:29:18;;;;;;;18.30;2.30;;;5.80;99.90;;;;;;5116976;27;20035;-87
2022/01/05 09:31:44;;;;;;;16.83;3.88;;;5.80;99.90;;;;;;5100397;27;20392;-87
2022/01/05 09:34:10;;;;;;;15.65;2.55;;;5.80;99.90;;;;;;5107455;27;20043;-88
2022/01/05 09:36:42;;;;;;;9.15;1.40;;;5.80;99.90;;;;;;5109971;27;20042;-87
2022/01/05 09:42:05;;;;;;;13.63;1.63;;;5.70;99.90;;;;;;5132913;27;20031;-88
2022/01/05 09:44:44;;;;;;;10.23;1.83;;;5.70;99.90;;;;;;5093194;27;20081;-88
2022/01/05 09:47:41;;;;;;;13.27;2.13;;;5.70;99.90;;;;;;5101868;27;20180;-88
2022/01/05 09:50:11;;;;;;;13.50;2.35;;;5.80;99.90;;;;;;5126800;27;20035;-87
2022/01/05 09:52:39;;;;;;;29.00;2.78;;;5.80;99.90;;;;;;5129141;27;20039;-87
2022/01/05 09:55:07;;;;;;;14.77;2.90;;;5.80;99.90;;;;;;5110978;27;20043;-87
2022/01/05 09:57:33;;;;;;;14.93;2.10;;;5.90;99.90;;;;;;5107114;27;20392;-87
2022/01/05 09:59:59;;;;;;;14.23;2.10;;;5.90;99.90;;;;;;5088848;27;20023;-92
2022/01/05 10:02:25;;;;;;;17.77;2.45;;;6.00;99.90;;;;;;5105396;27;20114;-87
2022/01/05 10:04:51;;;;;;;16.40;3.60;;;6.00;99.90;;;;;;5106271;27;20454;-86
2022/01/05 10:07:17;;;;;;;21.23;3.08;;;6.10;99.90;;;;;;5087069;27;20492;-86
2022/01/05 10:09:44;;;;;;;16.77;2.47;;;6.10;99.90;;;;;;5092405;27;20037;-86
2022/01/05 10:12:13;;;;;;;22.63;3.28;;;6.10;99.90;;;;;;5125097;27;20051;-86
2022/01/05 10:14:43;;;;;;;21.50;3.80;;;6.10;99.90;;;;;;5080744;28;20031;-87
2022/01/05 10:17:12;;;;;;;28.77;3.47;;;6.10;99.90;;;;;;5102927;27;20516;-86
2022/01/05 10:19:39;;;;;;;23.85;3.47;;;6.20;99.90;;;;;;5109636;27;20055;-86
2022/01/05 10:22:26;;;;;;;28.75;4.25;;;6.20;99.90;;;;;;5089564;27;20084;-86
2022/01/05 10:24:54;;;;;;;26.45;3.65;;;6.20;99.90;;;;;;5089644;27;20063;-86
2022/01/05 10:27:21;;;;;;;22.80;2.78;;;6.30;99.90;;;;;;5090627;27;20035;-87
2022/01/05 10:30:10;;;;;;;22.30;3.78;;;6.40;99.90;;;;;;5091155;27;20067;-87
2022/01/05 10:32:36;;;;;;;23.60;3.35;;;6.40;99.90;;;;;;5120991;27;20054;-85
2022/01/05 10:35:12;;;;;;;22.60;4.75;;;6.40;99.90;;;;;;5089838;27;20513;-86
2022/01/05 10:37:42;;;;;;;;;;;6.40;99.90;;;;;;5107499;27;20118;-86
2022/01/05 10:40:20;;;;;;;18.00;2.80;;;6.40;99.90;;;;;;5102596;28;19916;-86
2022/01/05 10:42:48;;;;;;;18.42;3.13;;;6.40;99.90;;;;;;5106389;27;20028;-85
2022/01/05 10:45:17;;;;;;;18.48;3.00;;;6.40;99.90;;;;;;5109479;27;20497;-86
2022/01/05 10:47:59;;;;;;;22.88;3.33;;;6.40;99.90;;;;;;5107900;27;20070;-86
2022/01/05 10:50:25;;;;;;;16.80;3.13;;;6.40;99.90;;;;;;5096579;28;20065;-86
2022/01/05 10:52:55;;;;;;;24.42;3.28;;;6.40;99.90;;;;;;5108477;27;20071;-85
2022/01/05 10:55:24;;;;;;;26.48;3.33;;;6.40;99.90;;;;;;5102523;27;20046;-85
2022/01/05 10:57:58;;;;;;;27.95;3.63;;;6.40;99.90;;;;;;5108262;27;20132;-86
2022/01/05 11:00:33;;;;;;;23.17;3.42;;;6.50;99.90;;;;;;5104789;27;20058;-86
2022/01/05 11:03:00;;;;;;;16.40;2.65;;;6.50;99.90;;;;;;5128513;27;20476;-86
2022/01/05 11:05:25;;;;;;;24.17;4.05;;;6.60;99.90;;;;;;5090613;27;20034;-86
2022/01/05 11:08:06;;;;;;;27.83;3.83;;;6.60;99.90;;;;;;5100353;27;20040;-86
2022/01/05 11:10:31;;;;;;;21.15;4.15;;;6.70;99.90;;;;;;5104032;27;20122;-85
2022/01/05 11:12:57;;;;;;;20.63;3.15;;;6.70;99.90;;;;;;5107762;27;20455;-86
2022/01/05 11:15:28;;;;;;;19.70;2.85;;;6.70;99.90;;;;;;5099441;27;20035;-90
2022/01/05 11:18:18;;;;;;;15.02;2.50;;;6.70;99.90;;;;;;5110096;27;20035;-86
2022/01/05 11:21:04;;;;;;;19.02;2.95;;;6.70;99.90;;;;;;5114946;27;20087;-87
2022/01/05 11:23:31;;;;;;;14.52;2.78;;;6.80;99.90;;;;;;5090334;27;20122;-87
2022/01/05 11:25:59;;;;;;;23.80;5.15;;;6.80;99.90;;;;;;5086987;27;20043;-87
2022/01/05 11:28:26;;;;;;;20.20;2.72;;;6.80;99.90;;;;;;5121633;27;20047;-86
2022/01/05 11:30:54;;;;;;;16.88;2.80;;;6.90;99.90;;;;;;5101197;27;20035;-87
2022/01/05 11:33:21;;;;;;;20.38;3.17;;;6.90;99.90;;;;;;5103982;27;20399;-87
2022/01/05 11:35:48;;;;;;;16.67;2.47;;;7.00;99.90;;;;;;5091614;27;20123;-87
2022/01/05 11:38:14;;;;;;;16.40;2.65;;;6.90;99.90;;;;;;5103714;27;20077;-86
2022/01/05 11:40:46;;;;;;;16.48;2.40;;;7.00;99.90;;;;;;5098156;27;20043;-86
2022/01/05 11:43:22;;;;;;;17.50;2.72;;;7.00;99.90;;;;;;5107158;27;20480;-87
2022/01/05 11:45:49;;;;;;;13.85;2.65;;;7.00;99.90;;;;;;5100995;27;20423;-87
2022/01/05 11:48:20;;;;;;;16.40;2.22;;;7.10;99.90;;;;;;5087028;27;20189;-87
2022/01/05 11:50:56;;;;;;;20.00;2.50;;;7.10;99.90;;;;;;5105984;27;20039;-87
2022/01/05 11:53:41;;;;;;;;;;;7.00;99.90;;;;;;5089354;27;20031;-89
2022/01/05 11:56:11;;;;;;;17.63;2.13;;;7.10;99.90;;;;;;5107067;27;20063;-85
2022/01/05 11:58:55;;;;;;;12.32;2.40;;;7.00;99.90;;;;;;5100212;28;20039;-84
2022/01/05 12:01:22;;;;;;;18.60;3.45;;;7.00;99.90;;;;;;5099532;27;20050;-85
2022/01/05 12:03:55;;;;;;;15.90;2.22;;;7.00;99.90;;;;;;5084692;27;20327;-87
2022/01/05 12:06:21;;;;;;;14.38;3.83;;;7.00;99.90;;;;;;5088126;28;20401;-91
2022/01/05 12:08:49;;;;;;;15.13;3.17;;;7.00;99.90;;;;;;5086673;27;20043;-84
2022/01/05 12:11:42;;;;;;;24.25;3.30;;;7.00;99.90;;;;;;5088382;27;20058;-81
2022/01/05 12:14:30;;;;;;;9.30;1.70;;;7.00;99.90;;;;;;5081161;27;20043;-85
2022/01/05 12:16:59;;;;;;;12.23;1.80;;;7.00;99.90;;;;;;5097668;27;20115;-84
2022/01/05 12:19:49;;;;;;;12.57;2.05;;;7.00;99.90;;;;;;5105694;28;20443;-81
2022/01/05 12:22:27;;;;;;;13.13;1.70;;;7.00;99.90;;;;;;5072677;27;20047;-81
2022/01/05 12:24:53;;;;;;;14.32;2.95;;;7.00;99.90;;;;;;5105897;28;20476;-82
2022/01/05 12:27:23;;;;;;;9.07;1.42;;;7.00;99.90;;;;;;5117403;27;20039;-81
2022/01/05 12:29:49;;;;;;;12.10;2.00;;;7.00;99.90;;;;;;5118841;27;20473;-80
2022/01/05 12:32:43;;;;;;;11.25;2.15;;;7.10;99.90;;;;;;5120884;27;20122;-85
2022/01/05 12:35:17;;;;;;;11.30;1.48;;;7.10;99.90;;;;;;5095858;27;20644;-84
2022/01/05 12:37:58;;;;;;;19.48;4.70;;;7.00;99.90;;;;;;5112288;27;20107;-84
2022/01/05 12:40:29;;;;;;;15.40;3.50;;;7.00;99.90;;;;;;5114570;27;20034;-86
2022/01/05 12:43:13;;;;;;;11.75;1.80;;;7.00;99.90;;;;;;5106921;28;20031;-82
2022/01/05 12:45:44;;;;;;;16.20;2.53;;;7.00;99.90;;;;;;5090831;28;20038;-85
2022/01/05 12:48:32;;;;;;;16.65;2.15;;;7.10;99.90;;;;;;5105243;28;20501;-85
2022/01/05 12:51:20;;;;;;;10.70;2.00;;;7.10;99.90;;;;;;5111013;28;20046;-84
2022/01/05 12:54:18;;;;;;;17.00;1.90;;;7.10;99.90;;;;;;5111295;28;20039;-84
2022/01/05 12:56:58;;;;;;;18.20;2.60;;;7.10;99.90;;;;;;5090211;28;20035;-85